Time;durP1;ratioP1;P1;durP2;ratioP2;P2;SDS_P1;SDS_P2;PMS_P1;PMS_P2;Temp;Humidity;BMP_temperature;BMP_pressure;BME280_temperature;BME280_humidity;BME280_pressure;Samples;Min_cycle;Max_cycle;Signal;HPM_P1;HPM_P2
2022/01/31 00:00:56;;;;;;;21.50;6.45;;;4.80;99.90;;;;;;5075562;28;20037;-72
2022/01/31 00:03:22;;;;;;;16.98;5.50;;;4.80;99.90;;;;;;5073610;28;20040;-72
2022/01/31 00:05:48;;;;;;;17.23;5.72;;;4.80;99.90;;;;;;5074716;28;20113;-72
2022/01/31 00:08:21;;;;;;;18.33;5.65;;;4.80;99.90;;;;;;5075242;28;20044;-72
2022/01/31 00:10:48;;;;;;;19.50;5.43;;;4.70;99.90;;;;;;5075327;28;20075;-71
2022/01/31 00:13:20;;;;;;;21.80;5.03;;;4.80;99.90;;;;;;5073916;28;20048;-72
2022/01/31 00:15:52;;;;;;;21.77;6.28;;;4.80;99.90;;;;;;5074414;28;20047;-71
2022/01/31 00:18:18;;;;;;;20.03;4.53;;;4.70;99.90;;;;;;5075051;28;20044;-72
2022/01/31 00:20:44;;;;;;;20.38;6.10;;;4.70;99.90;;;;;;5074756;28;20533;-72
2022/01/31 00:23:09;;;;;;;20.17;5.07;;;4.60;99.90;;;;;;5074382;28;20048;-72
2022/01/31 00:25:35;;;;;;;15.07;4.55;;;4.60;99.90;;;;;;5073390;28;20040;-71
2022/01/31 00:28:00;;;;;;;17.23;5.82;;;4.60;99.90;;;;;;5074678;28;20078;-72
2022/01/31 00:30:26;;;;;;;26.45;7.43;;;4.50;99.90;;;;;;5074900;28;20477;-72
2022/01/31 00:32:52;;;;;;;18.58;5.57;;;4.60;99.90;;;;;;5073035;28;20040;-72
2022/01/31 00:35:17;;;;;;;18.23;5.00;;;4.60;99.90;;;;;;5074657;28;20053;-72
2022/01/31 00:37:43;;;;;;;19.55;4.82;;;4.60;99.90;;;;;;5073188;28;20058;-71
2022/01/31 00:40:10;;;;;;;19.75;5.10;;;4.60;99.90;;;;;;5074096;28;20124;-72
2022/01/31 00:42:36;;;;;;;18.92;5.78;;;4.60;99.90;;;;;;5073437;28;20389;-72
2022/01/31 00:45:13;;;;;;;21.83;5.82;;;4.60;99.90;;;;;;5074245;28;20036;-72
2022/01/31 00:47:43;;;;;;;22.45;5.65;;;4.60;99.90;;;;;;5072688;28;20040;-71
2022/01/31 00:50:11;;;;;;;19.38;5.40;;;4.60;99.90;;;;;;5074154;28;20036;-72
2022/01/31 00:52:40;;;;;;;24.42;6.63;;;4.60;99.90;;;;;;5073869;28;20053;-72
2022/01/31 00:55:09;;;;;;;25.27;8.30;;;4.60;99.90;;;;;;5073023;28;20041;-72
2022/01/31 00:57:35;;;;;;;21.33;6.35;;;4.60;99.90;;;;;;5073433;28;20115;-71
2022/01/31 01:00:01;;;;;;;21.60;6.70;;;4.70;99.90;;;;;;5072648;28;20041;-72
2022/01/31 01:02:26;;;;;;;20.20;5.63;;;4.70;99.90;;;;;;5073987;28;20385;-72
2022/01/31 01:04:53;;;;;;;17.55;5.82;;;4.70;99.90;;;;;;5072430;28;20396;-72
2022/01/31 01:07:22;;;;;;;17.50;6.32;;;4.70;99.90;;;;;;5073938;28;20047;-72
2022/01/31 01:09:48;;;;;;;22.02;7.50;;;4.70;99.90;;;;;;5074262;28;20412;-72
2022/01/31 01:12:17;;;;;;;23.00;6.38;;;4.70;99.90;;;;;;5073604;28;20085;-72
2022/01/31 01:14:44;;;;;;;19.58;7.53;;;4.70;99.90;;;;;;5074030;28;20047;-72
2022/01/31 01:17:09;;;;;;;22.13;7.40;;;4.70;99.90;;;;;;5072285;28;20043;-71
2022/01/31 01:19:35;;;;;;;19.65;7.03;;;4.70;99.90;;;;;;5073489;28;20040;-72
2022/01/31 01:22:01;;;;;;;18.13;7.60;;;4.70;99.90;;;;;;5074108;28;20129;-72
2022/01/31 01:24:27;;;;;;;14.48;6.85;;;4.70;99.90;;;;;;5073150;28;20500;-72
2022/01/31 01:26:53;;;;;;;25.10;8.52;;;4.70;99.90;;;;;;5072021;28;20086;-71
2022/01/31 01:29:20;;;;;;;21.15;8.40;;;4.60;99.90;;;;;;5073347;28;20397;-72
2022/01/31 01:31:46;;;;;;;22.10;8.02;;;4.60;99.90;;;;;;5073659;28;20033;-71
2022/01/31 01:34:12;;;;;;;24.73;8.45;;;4.60;99.90;;;;;;5073776;28;20590;-72
2022/01/31 01:36:38;;;;;;;30.75;8.23;;;4.60;99.90;;;;;;5073262;28;20058;-72
2022/01/31 01:39:05;;;;;;;16.00;7.93;;;4.60;99.90;;;;;;5073018;28;20102;-72
2022/01/31 01:41:31;;;;;;;21.17;8.30;;;4.60;99.90;;;;;;5073602;28;20039;-71
2022/01/31 01:43:57;;;;;;;24.92;9.07;;;4.50;99.90;;;;;;5072260;28;20078;-71
2022/01/31 01:46:23;;;;;;;21.80;10.38;;;4.50;99.90;;;;;;5073064;28;20503;-71
2022/01/31 01:48:49;;;;;;;22.27;10.07;;;4.50;99.90;;;;;;5073491;28;20043;-71
2022/01/31 01:51:15;;;;;;;23.48;9.45;;;4.50;99.90;;;;;;5072524;28;20052;-72
2022/01/31 01:53:41;;;;;;;21.23;9.77;;;4.40;99.90;;;;;;5071914;28;20040;-71
2022/01/31 01:56:07;;;;;;;24.08;10.15;;;4.40;99.90;;;;;;5073131;28;20105;-71
2022/01/31 01:58:41;;;;;;;29.80;11.27;;;4.40;99.90;;;;;;5073282;28;20388;-71
2022/01/31 02:01:07;;;;;;;;;;;4.40;99.90;;;;;;5072748;28;20111;-72
2022/01/31 02:03:35;;;;;;;32.58;12.35;;;4.30;99.90;;;;;;5073761;28;20007;-72
2022/01/31 02:06:02;;;;;;;29.60;11.75;;;4.30;99.90;;;;;;5071476;28;20056;-71
2022/01/31 02:08:29;;;;;;;28.55;13.57;;;4.40;99.90;;;;;;5073628;28;20048;-72
2022/01/31 02:10:55;;;;;;;25.58;11.75;;;4.30;99.90;;;;;;5073157;28;20389;-72
2022/01/31 02:13:21;;;;;;;22.20;13.93;;;4.30;99.90;;;;;;5073156;28;20051;-72
2022/01/31 02:15:52;;;;;;;29.15;13.32;;;4.20;99.90;;;;;;5072973;28;20059;-72
2022/01/31 02:18:23;;;;;;;25.17;12.90;;;4.10;99.90;;;;;;5073202;28;20041;-72
2022/01/31 02:20:49;;;;;;;22.02;13.70;;;4.20;99.90;;;;;;5073153;28;20041;-72
2022/01/31 02:23:15;;;;;;;25.05;14.38;;;4.20;99.90;;;;;;5073237;28;20045;-72
2022/01/31 02:26:03;;;;;;;21.42;13.07;;;4.10;99.90;;;;;;5072986;28;20120;-71
2022/01/31 02:28:34;;;;;;;22.33;13.35;;;4.20;99.90;;;;;;5072981;28;20037;-71
2022/01/31 02:31:00;;;;;;;19.75;13.27;;;4.10;99.90;;;;;;5073844;28;20055;-72
2022/01/31 02:33:27;;;;;;;17.02;12.85;;;4.00;99.90;;;;;;5071555;28;20094;-72
2022/01/31 02:36:01;;;;;;;20.05;13.35;;;4.00;99.90;;;;;;5072781;28;20088;-72
2022/01/31 02:38:28;;;;;;;25.40;12.70;;;4.00;99.90;;;;;;5076120;28;20093;-72
2022/01/31 02:40:54;;;;;;;17.40;11.70;;;4.00;99.90;;;;;;5076359;28;20041;-72
2022/01/31 02:43:24;;;;;;;19.60;12.80;;;3.90;99.90;;;;;;5075182;28;20044;-72
2022/01/31 02:45:51;;;;;;;17.73;13.65;;;3.90;99.90;;;;;;5076688;28;20132;-72
2022/01/31 02:48:20;;;;;;;17.95;12.60;;;3.90;99.90;;;;;;5076242;28;20064;-72
2022/01/31 02:50:45;;;;;;;20.52;14.13;;;3.90;99.90;;;;;;5077031;28;20047;-72
2022/01/31 02:53:24;;;;;;;26.50;14.57;;;3.90;99.90;;;;;;5075321;28;20040;-72
2022/01/31 02:55:51;;;;;;;18.70;13.57;;;4.00;99.90;;;;;;5074997;28;20052;-71
2022/01/31 02:58:17;;;;;;;22.40;13.68;;;3.90;99.90;;;;;;5075401;28;20072;-72
2022/01/31 03:00:43;;;;;;;22.70;12.30;;;3.90;99.90;;;;;;5076250;28;20037;-72
2022/01/31 03:03:09;;;;;;;18.75;12.55;;;3.90;99.90;;;;;;5076177;28;20047;-72
2022/01/31 03:05:35;;;;;;;20.73;13.27;;;4.00;99.90;;;;;;5076122;28;20044;-72
2022/01/31 03:08:01;;;;;;;21.05;13.52;;;4.00;99.90;;;;;;5075995;28;20050;-72
2022/01/31 03:10:27;;;;;;;18.70;13.85;;;4.00;99.90;;;;;;5076048;28;20047;-72
2022/01/31 03:12:53;;;;;;;20.25;12.57;;;4.00;99.90;;;;;;5076365;28;20041;-72
2022/01/31 03:15:19;;;;;;;19.40;12.45;;;4.00;99.90;;;;;;5074760;28;20068;-72
2022/01/31 03:17:49;;;;;;;19.38;12.73;;;4.00;99.90;;;;;;5075936;28;20059;-72
2022/01/31 03:20:16;;;;;;;21.30;13.00;;;4.00;99.90;;;;;;5075817;28;20048;-72
2022/01/31 03:22:42;;;;;;;20.98;13.32;;;4.00;99.90;;;;;;5076182;28;20048;-72
2022/01/31 03:25:08;;;;;;;17.42;11.80;;;4.10;99.90;;;;;;5075729;28;20036;-72
2022/01/31 03:27:34;;;;;;;22.77;12.52;;;4.10;99.90;;;;;;5075402;28;20039;-72
2022/01/31 03:30:00;;;;;;;19.35;10.70;;;4.10;99.90;;;;;;5075783;28;20036;-72
2022/01/31 03:32:25;;;;;;;17.98;10.50;;;4.10;99.90;;;;;;5076073;28;20037;-72
2022/01/31 03:34:51;;;;;;;16.77;9.85;;;4.20;99.90;;;;;;5074598;28;20068;-73
2022/01/31 03:37:17;;;;;;;14.38;9.88;;;4.20;99.90;;;;;;5073993;28;20040;-72
2022/01/31 03:39:42;;;;;;;15.65;9.27;;;4.20;99.90;;;;;;5074291;28;20048;-72
2022/01/31 03:42:08;;;;;;;16.90;8.73;;;4.30;99.90;;;;;;5074352;28;20052;-72
2022/01/31 03:44:33;;;;;;;14.38;9.75;;;4.30;99.90;;;;;;5075661;28;20376;-72
2022/01/31 03:46:59;;;;;;;15.13;9.70;;;4.40;99.90;;;;;;5075263;28;20044;-72
2022/01/31 03:49:25;;;;;;;16.85;9.90;;;4.40;99.90;;;;;;5074906;28;20045;-72
2022/01/31 03:51:51;;;;;;;15.52;10.20;;;4.40;99.90;;;;;;5075720;28;20051;-72
2022/01/31 03:54:16;;;;;;;22.60;10.32;;;4.40;99.90;;;;;;5074537;28;20041;-72
2022/01/31 03:56:42;;;;;;;18.25;11.20;;;4.40;99.90;;;;;;5075097;28;20412;-72
2022/01/31 03:59:08;;;;;;;15.35;10.38;;;4.40;99.90;;;;;;5075074;28;20037;-72
2022/01/31 04:01:34;;;;;;;14.48;8.80;;;4.50;99.90;;;;;;5075233;28;20040;-72
2022/01/31 04:04:00;;;;;;;15.38;9.38;;;4.50;99.90;;;;;;5075052;28;20106;-72
2022/01/31 04:06:26;;;;;;;17.85;7.82;;;4.60;99.90;;;;;;5073414;28;20093;-72
2022/01/31 04:08:51;;;;;;;23.95;7.10;;;4.70;99.90;;;;;;5075445;28;20036;-72
2022/01/31 04:11:18;;;;;;;19.23;7.60;;;4.90;99.90;;;;;;5074160;28;20091;-72
2022/01/31 04:13:43;;;;;;;21.70;7.80;;;5.00;99.90;;;;;;5074921;28;20047;-72
2022/01/31 04:16:09;;;;;;;26.88;7.68;;;5.10;99.90;;;;;;5074751;28;20059;-72
2022/01/31 04:18:34;;;;;;;20.98;5.70;;;5.20;99.90;;;;;;5074851;28;20039;-72
2022/01/31 04:21:00;;;;;;;25.75;7.45;;;5.10;99.90;;;;;;5073688;28;20396;-72
2022/01/31 04:23:28;;;;;;;24.30;6.65;;;5.30;99.90;;;;;;5057478;28;20032;-72
2022/01/31 04:26:02;;;;;;;11.48;3.63;;;5.40;99.90;;;;;;5075058;28;20040;-72
2022/01/31 04:28:38;;;;;;;20.20;4.20;;;5.50;99.90;;;;;;5073196;28;20102;-72
2022/01/31 04:33:40;;;;;;;18.75;5.20;;;5.50;99.90;;;;;;5074346;28;20044;-72
2022/01/31 04:36:06;;;;;;;17.80;4.00;;;5.50;99.90;;;;;;5073808;28;20406;-71
2022/01/31 04:38:32;;;;;;;21.95;3.92;;;5.60;99.90;;;;;;5074171;28;20040;-71
2022/01/31 04:40:59;;;;;;;18.77;4.90;;;5.60;99.90;;;;;;5073299;28;20070;-72
2022/01/31 04:43:25;;;;;;;16.30;3.15;;;5.60;99.90;;;;;;5074574;28;20040;-72
2022/01/31 04:45:51;;;;;;;20.42;4.07;;;5.60;99.90;;;;;;5074452;28;20090;-72
2022/01/31 04:48:18;;;;;;;17.95;3.00;;;5.60;99.90;;;;;;5074104;28;20523;-72
2022/01/31 04:50:45;;;;;;;12.63;3.03;;;5.60;99.90;;;;;;5074685;28;20044;-72
2022/01/31 04:53:11;;;;;;;26.13;4.03;;;5.60;99.90;;;;;;5074339;28;20036;-72
2022/01/31 04:55:37;;;;;;;12.70;2.90;;;5.60;99.90;;;;;;5072723;28;20040;-71
2022/01/31 04:58:04;;;;;;;14.85;2.85;;;5.70;99.90;;;;;;5072669;28;20040;-72
2022/01/31 05:00:31;;;;;;;18.08;3.45;;;5.60;99.90;;;;;;5072115;28;20042;-72
2022/01/31 05:02:56;;;;;;;19.92;4.07;;;5.60;99.90;;;;;;5074444;28;20044;-72
2022/01/31 05:05:22;;;;;;;22.15;4.18;;;5.50;99.90;;;;;;5073910;28;20047;-72
2022/01/31 05:07:50;;;;;;;21.35;3.97;;;5.50;99.90;;;;;;5073392;28;20040;-72
2022/01/31 05:10:16;;;;;;;23.77;4.53;;;5.50;99.90;;;;;;5073913;28;20485;-71
2022/01/31 05:12:42;;;;;;;25.98;4.47;;;5.60;99.90;;;;;;5073757;28;20169;-72
2022/01/31 05:15:08;;;;;;;18.38;3.28;;;5.50;99.90;;;;;;5074110;28;20040;-72
2022/01/31 05:17:33;;;;;;;23.77;3.97;;;5.50;99.90;;;;;;5072578;28;20044;-71
2022/01/31 05:19:59;;;;;;;26.92;4.82;;;5.60;99.90;;;;;;5073722;28;20068;-71
2022/01/31 05:22:24;;;;;;;23.73;4.07;;;5.60;99.90;;;;;;5073791;28;20033;-72
2022/01/31 05:24:50;;;;;;;23.10;4.95;;;5.60;99.90;;;;;;5073723;28;20473;-72
2022/01/31 05:27:16;;;;;;;24.80;4.00;;;5.60;99.90;;;;;;5072943;28;20059;-71
2022/01/31 05:29:41;;;;;;;17.50;3.58;;;5.70;99.90;;;;;;5074154;28;20044;-72
2022/01/31 05:32:07;;;;;;;13.70;2.90;;;5.70;99.90;;;;;;5073616;28;20072;-72
2022/01/31 05:34:33;;;;;;;17.10;2.83;;;5.70;99.90;;;;;;5073295;28;20086;-72
2022/01/31 05:36:58;;;;;;;16.73;3.20;;;5.60;99.90;;;;;;5073269;28;20377;-71
2022/01/31 05:39:25;;;;;;;8.93;1.73;;;5.50;99.90;;;;;;5073381;28;20112;-72
2022/01/31 05:41:52;;;;;;;8.95;1.90;;;5.60;99.90;;;;;;5072368;28;20048;-72
2022/01/31 05:44:18;;;;;;;11.00;1.75;;;5.50;99.90;;;;;;5073829;28;20049;-72
2022/01/31 05:46:44;;;;;;;12.15;2.10;;;5.40;99.90;;;;;;5071664;28;20109;-71
2022/01/31 05:49:09;;;;;;;7.05;3.00;;;5.40;99.90;;;;;;5073408;28;20037;-71
2022/01/31 05:51:40;;;;;;;10.55;1.90;;;5.30;99.90;;;;;;5073606;28;20456;-71
2022/01/31 05:54:05;;;;;;;14.95;2.30;;;5.30;99.90;;;;;;5072263;28;20048;-71
2022/01/31 05:56:31;;;;;;;9.57;2.00;;;5.20;99.90;;;;;;5071593;28;20400;-71
2022/01/31 05:58:56;;;;;;;8.38;2.00;;;5.20;99.90;;;;;;5073278;28;20043;-71
2022/01/31 06:01:22;;;;;;;11.80;1.35;;;5.10;99.90;;;;;;5056055;28;20185;-71
2022/01/31 06:03:48;;;;;;;10.55;1.92;;;5.10;99.90;;;;;;5071903;28;20047;-71
2022/01/31 06:06:13;;;;;;;7.93;1.40;;;5.10;99.90;;;;;;5072841;28;20119;-71
2022/01/31 06:08:39;;;;;;;9.75;3.00;;;5.10;99.90;;;;;;5073546;28;20499;-71
2022/01/31 06:11:05;;;;;;;11.98;2.10;;;5.10;99.90;;;;;;5072896;28;20048;-72
2022/01/31 06:13:33;;;;;;;10.85;2.22;;;5.20;99.90;;;;;;5076315;28;20048;-71
2022/01/31 06:15:58;;;;;;;8.18;1.50;;;5.10;99.90;;;;;;5076769;28;20124;-71
2022/01/31 06:18:24;;;;;;;5.47;1.75;;;5.20;99.90;;;;;;5077250;28;20111;-71
2022/01/31 06:20:50;;;;;;;10.23;1.90;;;5.20;99.90;;;;;;5079388;28;20595;-71
2022/01/31 06:23:15;;;;;;;13.70;2.50;;;5.20;99.90;;;;;;5079387;28;20040;-71
2022/01/31 06:25:41;;;;;;;9.35;1.52;;;5.10;99.90;;;;;;5095689;28;20135;-71
2022/01/31 06:28:07;;;;;;;10.63;1.80;;;5.10;99.90;;;;;;5097525;28;20051;-71
2022/01/31 06:30:33;;;;;;;7.65;1.73;;;5.10;99.90;;;;;;5085581;28;20426;-71
2022/01/31 06:32:59;;;;;;;10.88;1.77;;;5.10;99.90;;;;;;5076652;28;20044;-71
2022/01/31 06:35:25;;;;;;;5.68;1.80;;;5.10;99.90;;;;;;5074923;28;20397;-71
2022/01/31 06:37:52;;;;;;;13.23;2.25;;;5.10;99.90;;;;;;5072749;28;20447;-71
2022/01/31 06:40:19;;;;;;;11.55;2.40;;;5.20;99.90;;;;;;5074302;28;20036;-71
2022/01/31 06:42:44;;;;;;;12.35;2.10;;;5.20;99.90;;;;;;5074331;28;20161;-71
2022/01/31 06:45:11;;;;;;;16.30;2.40;;;5.10;99.90;;;;;;5073029;28;20139;-71
2022/01/31 06:47:38;;;;;;;10.88;1.85;;;5.10;99.90;;;;;;5072561;28;20424;-71
2022/01/31 06:50:06;;;;;;;15.57;3.03;;;5.10;99.90;;;;;;5072944;28;20123;-71
2022/01/31 06:52:35;;;;;;;8.95;2.25;;;5.10;99.90;;;;;;5074446;28;20036;-71
2022/01/31 06:55:04;;;;;;;8.02;2.17;;;5.10;99.90;;;;;;5076670;28;20506;-71
2022/01/31 06:57:33;;;;;;;11.18;1.85;;;5.10;99.90;;;;;;5074390;28;20132;-71
2022/01/31 07:00:05;;;;;;;16.75;3.13;;;5.10;99.90;;;;;;5076817;28;20522;-71
2022/01/31 07:02:31;;;;;;;13.98;2.60;;;5.20;99.90;;;;;;5075134;28;20102;-71
2022/01/31 07:04:57;;;;;;;15.35;2.40;;;5.10;99.90;;;;;;5075332;28;20464;-71
2022/01/31 07:07:22;;;;;;;14.63;3.95;;;5.20;99.90;;;;;;5075045;28;20111;-71
2022/01/31 07:09:48;;;;;;;9.27;2.58;;;5.20;99.90;;;;;;5075876;28;20097;-71
2022/01/31 07:12:16;;;;;;;11.48;2.40;;;5.20;99.90;;;;;;5075750;28;20115;-71
2022/01/31 07:14:42;;;;;;;10.85;2.35;;;5.30;99.90;;;;;;5074699;28;20055;-71
2022/01/31 07:17:07;;;;;;;16.25;2.80;;;5.20;99.90;;;;;;5075432;28;20036;-71
2022/01/31 07:19:36;;;;;;;15.23;2.15;;;5.30;99.90;;;;;;5057699;28;20485;-71
2022/01/31 07:22:06;;;;;;;11.48;1.90;;;5.30;99.90;;;;;;5075683;28;20040;-71
2022/01/31 07:27:04;;;;;;;11.23;1.63;;;5.50;99.90;;;;;;5075593;28;20580;-71
2022/01/31 07:29:30;;;;;;;9.45;2.33;;;5.40;99.90;;;;;;5075506;28;20481;-70
2022/01/31 07:31:57;;;;;;;10.93;1.95;;;5.50;99.90;;;;;;5074809;28;20055;-71
2022/01/31 07:34:24;;;;;;;10.75;1.90;;;5.40;99.90;;;;;;5076016;28;20075;-70
2022/01/31 07:36:51;;;;;;;11.52;2.50;;;5.40;99.90;;;;;;5075449;28;20044;-71
2022/01/31 07:39:16;;;;;;;11.52;1.83;;;5.30;99.90;;;;;;5075986;28;20071;-71
2022/01/31 07:41:43;;;;;;;13.68;2.22;;;5.30;99.90;;;;;;5075649;28;20040;-71
2022/01/31 07:44:10;;;;;;;8.98;1.90;;;5.30;99.90;;;;;;5074096;28;20392;-71
2022/01/31 07:46:36;;;;;;;13.93;2.10;;;5.20;99.90;;;;;;5075329;28;20037;-71
2022/01/31 07:49:02;;;;;;;13.77;2.25;;;5.20;99.90;;;;;;5074131;28;20469;-71
2022/01/31 07:51:28;;;;;;;11.68;1.90;;;5.20;99.90;;;;;;5075311;28;20489;-71
2022/01/31 07:53:53;;;;;;;9.63;1.92;;;5.20;99.90;;;;;;5074072;28;20064;-71
2022/01/31 07:56:20;;;;;;;12.02;2.20;;;5.20;99.90;;;;;;5073838;28;20036;-71
2022/01/31 07:58:46;;;;;;;13.27;2.55;;;5.20;99.90;;;;;;5073890;28;20429;-71
2022/01/31 08:01:12;;;;;;;11.38;1.70;;;5.30;99.90;;;;;;5075409;28;20024;-71
2022/01/31 08:03:38;;;;;;;9.15;2.55;;;5.30;99.90;;;;;;5075560;28;20477;-71
2022/01/31 08:06:04;;;;;;;12.70;2.05;;;5.30;99.90;;;;;;5073655;28;20463;-71
2022/01/31 08:08:31;;;;;;;5.63;2.22;;;5.30;99.90;;;;;;5075027;28;20040;-71
2022/01/31 08:10:57;;;;;;;8.35;1.83;;;5.20;99.90;;;;;;5073728;28;20050;-71
2022/01/31 08:13:25;;;;;;;17.20;4.47;;;5.20;99.90;;;;;;5074077;28;20072;-71
2022/01/31 08:16:09;;;;;;;9.10;1.80;;;5.30;99.90;;;;;;5074483;28;20041;-70
2022/01/31 08:18:41;;;;;;;7.75;3.28;;;5.30;99.90;;;;;;5074697;28;20466;-71
2022/01/31 08:21:08;;;;;;;7.20;2.03;;;5.30;99.90;;;;;;5075250;28;20028;-71
2022/01/31 08:23:34;;;;;;;10.73;1.70;;;5.40;99.90;;;;;;5074558;28;20040;-70
2022/01/31 08:26:02;;;;;;;11.75;2.00;;;5.40;99.90;;;;;;5074262;28;20090;-70
2022/01/31 08:28:41;;;;;;;7.90;1.73;;;5.50;99.90;;;;;;5074572;28;20036;-70
2022/01/31 08:31:13;;;;;;;14.00;2.22;;;5.50;99.90;;;;;;5074759;28;20032;-70
2022/01/31 08:33:48;;;;;;;11.10;2.10;;;5.50;99.90;;;;;;5074942;28;20116;-70
2022/01/31 08:36:13;;;;;;;7.97;2.17;;;5.50;99.90;;;;;;5073472;28;20041;-70
2022/01/31 08:38:41;;;;;;;9.57;1.70;;;5.50;99.90;;;;;;5074459;28;20111;-70
2022/01/31 08:41:08;;;;;;;11.55;3.45;;;5.50;99.90;;;;;;5073369;28;20044;-70
2022/01/31 08:43:35;;;;;;;9.65;1.80;;;5.60;99.90;;;;;;5074348;28;20037;-70
2022/01/31 08:46:01;;;;;;;16.48;2.08;;;5.50;99.90;;;;;;5072761;28;20418;-71
2022/01/31 08:48:28;;;;;;;9.05;1.88;;;5.60;99.90;;;;;;5074009;28;20033;-70
2022/01/31 08:50:54;;;;;;;12.63;2.10;;;5.70;99.90;;;;;;5072959;28;20532;-71
2022/01/31 08:53:21;;;;;;;8.90;2.20;;;5.70;99.90;;;;;;5074331;28;20033;-71
2022/01/31 08:55:49;;;;;;;9.73;2.10;;;5.70;99.90;;;;;;5073958;28;20036;-71
2022/01/31 08:58:16;;;;;;;13.90;2.55;;;5.80;99.90;;;;;;5074071;28;20037;-72
2022/01/31 09:00:43;;;;;;;9.85;2.75;;;5.80;99.90;;;;;;5072536;28;20516;-71
2022/01/31 09:05:38;;;;;;;11.38;1.90;;;5.80;99.90;;;;;;5072588;28;20492;-70
2022/01/31 09:08:04;;;;;;;12.05;2.78;;;5.80;99.90;;;;;;5073652;28;20511;-71
2022/01/31 09:10:30;;;;;;;12.43;1.95;;;6.00;99.90;;;;;;5073995;28;20033;-71
2022/01/31 09:12:55;;;;;;;10.38;2.80;;;6.00;99.90;;;;;;5074288;28;20029;-71
2022/01/31 09:15:22;;;;;;;14.90;2.55;;;6.00;99.90;;;;;;5073895;28;20154;-70
2022/01/31 09:17:47;;;;;;;12.82;2.55;;;6.10;99.90;;;;;;5073614;28;20036;-70
2022/01/31 09:20:13;;;;;;;13.45;2.58;;;6.00;99.90;;;;;;5072538;28;20044;-70
2022/01/31 09:22:39;;;;;;;18.20;2.65;;;6.00;99.90;;;;;;5073465;28;20092;-70
2022/01/31 09:25:05;;;;;;;11.00;2.78;;;5.90;99.90;;;;;;5072811;28;20381;-70
2022/01/31 09:27:31;;;;;;;12.02;2.65;;;6.00;99.90;;;;;;5073613;28;20041;-70
2022/01/31 09:29:57;;;;;;;13.05;1.85;;;6.10;99.90;;;;;;5074055;28;20037;-70
2022/01/31 09:32:24;;;;;;;9.60;2.00;;;6.00;99.90;;;;;;5071583;28;20052;-70
2022/01/31 09:34:51;;;;;;;16.02;2.53;;;6.10;99.90;;;;;;5073350;28;20043;-70
2022/01/31 09:37:19;;;;;;;9.23;2.17;;;6.30;99.90;;;;;;5071278;28;20063;-70
2022/01/31 09:39:46;;;;;;;14.50;2.70;;;6.40;99.90;;;;;;5071503;28;20056;-70
2022/01/31 09:42:15;;;;;;;14.13;2.80;;;6.40;99.90;;;;;;5073135;28;20485;-70
2022/01/31 09:49:47;;;;;;;13.18;2.15;;;6.40;99.90;;;;;;5074020;28;20051;-71
2022/01/31 09:52:14;;;;;;;7.13;1.88;;;6.50;99.90;;;;;;5073809;28;20032;-70
2022/01/31 09:54:39;;;;;;;9.80;1.40;;;6.50;99.90;;;;;;5072134;28;20041;-71
2022/01/31 09:57:05;;;;;;;6.88;1.40;;;6.60;99.90;;;;;;5073002;28;20444;-71
2022/01/31 09:59:31;;;;;;;4.32;1.23;;;6.60;99.90;;;;;;5071932;28;20044;-71
2022/01/31 10:01:58;;;;;;;9.38;1.95;;;6.60;99.90;;;;;;5073469;28;20380;-71
2022/01/31 10:04:35;;;;;;;9.18;1.35;;;6.60;99.90;;;;;;5073167;28;20104;-70
2022/01/31 10:07:03;;;;;;;8.18;1.35;;;6.80;99.90;;;;;;5072765;28;20052;-71
2022/01/31 10:09:30;;;;;;;12.60;1.95;;;6.90;99.90;;;;;;5072890;28;20547;-70
2022/01/31 10:12:10;;;;;;;10.65;2.40;;;6.90;99.90;;;;;;5073301;28;20047;-70
2022/01/31 10:17:30;;;;;;;7.93;1.30;;;6.90;99.90;;;;;;5072744;28;20412;-70
2022/01/31 10:19:58;;;;;;;11.55;1.73;;;6.90;99.90;;;;;;5072908;28;20036;-71
2022/01/31 10:22:26;;;;;;;15.80;2.35;;;6.90;99.90;;;;;;5073306;28;20043;-71
2022/01/31 10:24:54;;;;;;;8.23;1.67;;;7.00;99.90;;;;;;5072553;28;20127;-72
2022/01/31 10:27:29;;;;;;;10.68;1.75;;;7.10;99.90;;;;;;5071321;28;20051;-71
2022/01/31 10:30:04;;;;;;;6.55;1.58;;;7.20;99.90;;;;;;5059074;28;20041;-70
2022/01/31 10:32:34;;;;;;;9.48;2.13;;;7.10;99.90;;;;;;5072133;28;20052;-69
2022/01/31 10:35:07;;;;;;;12.32;2.05;;;7.20;99.90;;;;;;5073461;28;20040;-70
2022/01/31 10:37:35;;;;;;;11.83;2.93;;;7.20;99.90;;;;;;5071344;28;20068;-70
2022/01/31 10:56:55;;;;;;;12.30;2.10;;;7.40;99.90;;;;;;5071965;28;20132;-69
2022/01/31 10:59:43;;;;;;;12.23;2.20;;;7.40;99.90;;;;;;5075505;28;20041;-70
2022/01/31 11:02:15;;;;;;;18.80;2.42;;;7.50;99.90;;;;;;5062049;28;20519;-69
2022/01/31 11:04:44;;;;;;;10.60;2.45;;;7.50;99.90;;;;;;5076234;28;20085;-70
2022/01/31 11:07:16;;;;;;;8.98;2.55;;;7.60;99.90;;;;;;5075594;28;20094;-70
2022/01/31 11:09:43;;;;;;;15.07;3.08;;;7.60;99.90;;;;;;5076449;28;20490;-70
2022/01/31 11:12:10;;;;;;;15.02;2.50;;;7.60;99.90;;;;;;5076057;28;20037;-69
2022/01/31 11:14:43;;;;;;;13.48;3.45;;;7.70;99.90;;;;;;5075393;28;20169;-72
2022/01/31 11:17:11;;;;;;;18.85;2.55;;;7.80;99.90;;;;;;5074517;28;20116;-70
2022/01/31 11:19:40;;;;;;;9.82;2.15;;;8.00;99.90;;;;;;5075892;28;20075;-70
2022/01/31 11:22:12;;;;;;;9.30;2.08;;;8.00;99.90;;;;;;5074167;28;20166;-70
2022/01/31 11:24:46;;;;;;;10.02;2.35;;;8.10;99.90;;;;;;5073582;28;20036;-70
2022/01/31 11:27:17;;;;;;;6.97;2.20;;;7.90;99.90;;;;;;5075627;28;20044;-71
2022/01/31 11:29:48;;;;;;;13.48;2.15;;;8.00;99.90;;;;;;5057354;28;20060;-71
2022/01/31 11:32:14;;;;;;;14.10;2.10;;;7.80;99.90;;;;;;5069681;28;20091;-71
2022/01/31 11:34:43;;;;;;;12.27;2.40;;;7.80;99.90;;;;;;5074090;28;20046;-70
2022/01/31 11:37:12;;;;;;;15.25;2.13;;;7.80;99.90;;;;;;5069910;28;20051;-71
2022/01/31 11:39:41;;;;;;;15.35;2.45;;;7.90;99.90;;;;;;5082745;28;20042;-72
2022/01/31 11:42:07;;;;;;;10.90;1.80;;;8.00;99.90;;;;;;5082671;28;20044;-71
2022/01/31 11:44:57;;;;;;;14.60;3.10;;;8.20;99.90;;;;;;5083982;28;20113;-70
2022/01/31 11:47:25;;;;;;;11.90;2.42;;;8.20;99.90;;;;;;5087512;28;20063;-71
2022/01/31 11:50:03;;;;;;;9.10;1.98;;;8.10;99.90;;;;;;5071747;28;20044;-71
2022/01/31 11:52:47;;;;;;;14.73;2.72;;;8.20;99.90;;;;;;5079967;28;20037;-71
2022/01/31 11:55:16;;;;;;;11.68;2.28;;;8.20;99.90;;;;;;5075552;28;20123;-72
2022/01/31 11:57:46;;;;;;;18.05;2.92;;;8.20;99.90;;;;;;5074824;28;20055;-71
2022/01/31 12:00:14;;;;;;;14.20;2.70;;;8.30;99.90;;;;;;5075969;28;20033;-71
2022/01/31 12:02:51;;;;;;;19.42;3.95;;;8.30;99.90;;;;;;5075438;28;20036;-71
2022/01/31 12:05:28;;;;;;;13.35;2.70;;;8.30;99.90;;;;;;5073983;28;20404;-70
2022/01/31 12:08:02;;;;;;;14.90;3.08;;;8.20;99.90;;;;;;5073371;28;20037;-71
2022/01/31 12:10:33;;;;;;;;;;;8.30;99.90;;;;;;5074589;28;20055;-71
2022/01/31 12:13:11;;;;;;;14.32;3.53;;;8.30;99.90;;;;;;5073706;28;19923;-71
2022/01/31 12:15:57;;;;;;;16.45;2.90;;;8.20;99.90;;;;;;5073512;28;20124;-71
2022/01/31 12:18:45;;;;;;;12.93;3.33;;;8.30;99.90;;;;;;5074537;28;20454;-71
2022/01/31 12:22:00;;;;;;;13.45;3.47;;;8.30;99.90;;;;;;5073629;28;20495;-71
2022/01/31 12:24:37;;;;;;;19.60;4.78;;;8.20;99.90;;;;;;5075133;28;20119;-70
2022/01/31 12:27:15;;;;;;;14.45;2.80;;;8.30;99.90;;;;;;5078432;28;20046;-72
2022/01/31 12:29:55;;;;;;;21.08;2.95;;;8.20;99.90;;;;;;5081502;28;20058;-72
2022/01/31 12:32:23;;;;;;;15.82;3.92;;;8.30;99.90;;;;;;5086205;28;20036;-71
2022/01/31 12:34:55;;;;;;;13.70;2.95;;;8.30;99.90;;;;;;5053616;28;20131;-71
2022/01/31 12:37:33;;;;;;;13.20;3.92;;;8.20;99.90;;;;;;5054107;28;20484;-71
2022/01/31 12:40:18;;;;;;;18.38;3.05;;;8.40;99.90;;;;;;5054512;28;20048;-69
2022/01/31 12:45:54;;;;;;;16.17;3.15;;;8.30;99.90;;;;;;5060328;28;20043;-71
2022/01/31 12:48:23;;;;;;;13.30;3.08;;;8.40;99.90;;;;;;5074106;28;20041;-70
2022/01/31 12:50:49;;;;;;;14.48;3.13;;;8.40;99.90;;;;;;5072975;28;20569;-71
2022/01/31 12:53:40;;;;;;;21.98;3.50;;;8.40;99.90;;;;;;5072931;28;20075;-70
2022/01/31 12:56:14;;;;;;;13.80;2.63;;;8.50;99.90;;;;;;5071197;28;20048;-71
2022/01/31 12:58:46;;;;;;;9.88;2.38;;;8.60;99.90;;;;;;5056913;28;20164;-71
2022/01/31 13:01:19;;;;;;;15.10;3.03;;;8.50;99.90;;;;;;5072542;28;20040;-71
2022/01/31 13:03:51;;;;;;;18.48;3.20;;;8.50;99.90;;;;;;5074327;28;20028;-71
2022/01/31 13:06:36;;;;;;;23.20;3.45;;;8.50;99.90;;;;;;5073693;28;20055;-71
2022/01/31 13:09:06;;;;;;;18.60;4.00;;;8.40;99.90;;;;;;5074558;28;20104;-72
2022/01/31 13:11:32;;;;;;;20.75;3.47;;;8.50;99.90;;;;;;5072834;28;20040;-72
2022/01/31 13:14:10;;;;;;;18.58;2.90;;;8.50;99.90;;;;;;5074220;28;20043;-71
2022/01/31 13:17:05;;;;;;;21.73;3.63;;;8.50;99.90;;;;;;5072094;28;20476;-72
2022/01/31 13:19:33;;;;;;;12.70;2.97;;;8.50;99.90;;;;;;5072497;28;20043;-71
2022/01/31 13:22:01;;;;;;;17.45;3.58;;;8.30;99.90;;;;;;5073512;28;20055;-72
2022/01/31 13:24:39;;;;;;;19.23;2.97;;;8.40;99.90;;;;;;5076094;28;20036;-71
2022/01/31 13:27:08;;;;;;;18.33;2.75;;;8.30;99.90;;;;;;5073372;28;20123;-71
2022/01/31 13:29:37;;;;;;;14.98;3.00;;;8.40;99.90;;;;;;5074132;28;20036;-71